Time;durP1;ratioP1;P1;durP2;ratioP2;P2;SDS_P1;SDS_P2;PMS_P1;PMS_P2;Temp;Humidity;BMP_temperature;BMP_pressure;BME280_temperature;BME280_humidity;BME280_pressure;Samples;Min_cycle;Max_cycle;Signal;HPM_P1;HPM_P2
2022/05/22 00:00:01;;;;;;;2.80;2.45;;;;;;;16.52;98.92;90761.00;5030893;28;20022;-63
2022/05/22 00:02:26;;;;;;;2.92;2.70;;;;;;;16.53;98.84;90754.50;5034456;28;20030;-63
2022/05/22 00:04:52;;;;;;;2.90;2.47;;;;;;;16.41;99.92;90753.50;5035212;28;20030;-63
2022/05/22 00:07:18;;;;;;;2.63;2.42;;;;;;;16.36;100.00;90756.41;5035113;28;20029;-63
2022/05/22 00:09:44;;;;;;;3.05;2.63;;;;;;;16.33;100.00;90750.97;5035009;28;20096;-63
2022/05/22 00:12:11;;;;;;;3.35;2.78;;;;;;;16.27;100.00;90757.75;5035094;28;20040;-63
2022/05/22 00:14:37;;;;;;;3.13;2.83;;;;;;;16.21;100.00;90759.88;5034980;28;20109;-62
2022/05/22 00:17:06;;;;;;;2.83;2.60;;;;;;;16.27;100.00;90752.38;5034993;28;20041;-63
2022/05/22 00:19:32;;;;;;;4.47;2.55;;;;;;;16.45;98.36;90748.19;5034789;28;20025;-63
2022/05/22 00:21:59;;;;;;;2.65;2.35;;;;;;;16.54;97.24;90742.63;5034827;28;20091;-63
2022/05/22 00:24:29;;;;;;;2.83;2.60;;;;;;;16.60;96.29;90758.16;5035062;28;20107;-63
2022/05/22 00:26:55;;;;;;;4.15;2.67;;;;;;;16.55;96.85;90754.94;5034596;28;20045;-63
2022/05/22 00:29:21;;;;;;;3.08;2.65;;;;;;;16.64;95.51;90744.78;5034578;28;20021;-63
2022/05/22 00:31:46;;;;;;;3.10;2.80;;;;;;;16.69;94.22;90753.38;5034681;28;20032;-63
2022/05/22 00:34:13;;;;;;;3.00;2.60;;;;;;;16.68;93.53;90735.69;5034646;28;20495;-62
2022/05/22 00:36:38;;;;;;;2.92;2.67;;;;;;;16.72;94.47;90746.53;5034563;28;20490;-63
2022/05/22 00:39:04;;;;;;;3.00;2.72;;;;;;;16.54;96.10;90740.72;5034513;28;20045;-63
2022/05/22 00:41:31;;;;;;;2.63;2.42;;;;;;;16.40;97.11;90735.03;5034424;28;20479;-62
2022/05/22 00:43:57;;;;;;;2.75;2.50;;;;;;;16.42;98.20;90744.31;5034491;28;20030;-62
2022/05/22 00:46:24;;;;;;;2.88;2.53;;;;;;;16.41;98.50;90736.56;5034459;28;20064;-62
2022/05/22 00:48:54;;;;;;;2.92;2.67;;;;;;;16.30;99.35;90730.97;5034327;28;20060;-62
2022/05/22 00:51:24;;;;;;;2.88;2.67;;;;;;;16.32;99.83;90731.41;5034362;28;20017;-62
2022/05/22 00:53:54;;;;;;;3.50;3.20;;;;;;;16.33;99.85;90737.56;5034311;28;20090;-62
2022/05/22 00:56:24;;;;;;;2.67;2.47;;;;;;;16.32;100.00;90738.69;5033159;28;20515;-62
2022/05/22 00:58:53;;;;;;;3.20;2.90;;;;;;;16.30;99.51;90722.91;5034109;28;20107;-62
2022/05/22 01:01:19;;;;;;;4.28;2.78;;;;;;;16.52;98.39;90742.19;5033981;28;20040;-63
2022/05/22 01:03:44;;;;;;;2.75;2.55;;;;;;;16.45;97.58;90727.50;5034047;28;20033;-62
2022/05/22 01:06:16;;;;;;;4.57;2.78;;;;;;;16.39;97.84;90731.56;5034126;28;20521;-62
2022/05/22 01:08:42;;;;;;;3.35;2.40;;;;;;;16.54;96.54;90724.59;5033899;28;20025;-62
2022/05/22 01:11:13;;;;;;;3.10;2.40;;;;;;;16.59;96.32;90737.00;5034146;28;20060;-62
2022/05/22 01:13:44;;;;;;;2.97;2.63;;;;;;;16.52;96.55;90721.50;5033845;28;20073;-62
2022/05/22 01:16:10;;;;;;;2.53;2.33;;;;;;;16.62;95.96;90731.72;5033830;28;20021;-62
2022/05/22 01:18:51;;;;;;;3.13;2.67;;;;;;;16.63;95.30;90724.44;5033796;28;20025;-63
2022/05/22 01:21:20;;;;;;;2.28;2.08;;;;;;;16.63;95.59;90721.75;5033537;28;20056;-63
2022/05/22 01:23:46;;;;;;;3.67;2.50;;;;;;;16.56;96.44;90716.97;5033725;28;20045;-62
2022/05/22 01:26:12;;;;;;;3.00;2.72;;;;;;;16.54;96.80;90721.16;5033498;28;20496;-63
2022/05/22 01:28:38;;;;;;;2.35;2.15;;;;;;;16.53;96.33;90708.84;5033468;28;20172;-63
2022/05/22 01:31:04;;;;;;;3.50;2.85;;;;;;;16.51;96.25;90730.69;5033488;28;20056;-63
2022/05/22 01:33:32;;;;;;;3.22;2.25;;;;;;;16.55;96.52;90714.66;5033703;28;20034;-63
2022/05/22 01:35:57;;;;;;;2.70;2.50;;;;;;;16.62;95.25;90717.50;5033325;28;20025;-63
2022/05/22 01:38:23;;;;;;;3.28;2.53;;;;;;;16.58;94.93;90717.44;5033371;28;20029;-63
2022/05/22 01:40:48;;;;;;;2.60;2.40;;;;;;;16.68;93.51;90718.81;5033309;28;20026;-63
2022/05/22 01:43:14;;;;;;;3.35;2.50;;;;;;;16.70;92.41;90717.31;5033219;28;20025;-63
2022/05/22 01:45:42;;;;;;;2.83;2.40;;;;;;;16.60;92.98;90706.34;5033206;28;20117;-63
2022/05/22 01:48:07;;;;;;;3.10;2.80;;;;;;;16.56;92.32;90721.56;5033061;28;20495;-63
2022/05/22 01:50:33;;;;;;;4.53;2.42;;;;;;;16.70;91.54;90713.88;5033219;28;20037;-63
2022/05/22 01:52:59;;;;;;;4.80;2.40;;;;;;;16.64;91.41;90716.03;5033131;28;20492;-63
2022/05/22 01:55:24;;;;;;;2.90;2.65;;;;;;;16.66;91.04;90710.28;5032919;28;20029;-63
2022/05/22 01:57:50;;;;;;;2.85;2.65;;;;;;;16.76;90.44;90717.84;5032957;28;20037;-65
2022/05/22 02:00:19;;;;;;;2.60;2.40;;;;;;;16.85;89.09;90717.63;5033093;28;20033;-64
2022/05/22 02:02:46;;;;;;;2.58;2.38;;;;;;;16.83;89.21;90717.22;5033126;28;20100;-64
2022/05/22 02:05:14;;;;;;;3.10;2.80;;;;;;;16.85;88.90;90710.34;5032865;28;20029;-64
2022/05/22 02:10:24;;;;;;;3.42;2.50;;;;;;;16.77;88.85;90716.72;5033256;28;20068;-64
2022/05/22 02:12:51;;;;;;;3.30;2.67;;;;;;;16.79;88.07;90714.47;5032767;28;20506;-64
2022/05/22 02:15:18;;;;;;;3.85;2.72;;;;;;;16.66;89.12;90704.94;5032662;28;20568;-64
2022/05/22 02:17:44;;;;;;;3.42;2.55;;;;;;;16.68;89.56;90713.44;5032803;28;20036;-64
2022/05/22 02:20:10;;;;;;;2.42;2.20;;;;;;;16.66;89.98;90710.28;5032639;28;20428;-64
2022/05/22 02:22:44;;;;;;;2.50;2.30;;;;;;;16.65;90.34;90708.75;5013693;28;20033;-64
2022/05/22 02:25:10;;;;;;;2.95;2.55;;;;;;;16.66;90.57;90716.44;5032022;28;20179;-64
2022/05/22 02:27:35;;;;;;;2.63;2.42;;;;;;;16.61;90.76;90711.34;5032424;28;20543;-64
2022/05/22 02:30:03;;;;;;;2.72;2.53;;;;;;;16.67;90.80;90717.25;5032651;28;20049;-64
2022/05/22 02:32:29;;;;;;;2.80;2.50;;;;;;;16.71;90.82;90707.34;5032429;28;20034;-64
2022/05/22 02:34:54;;;;;;;4.32;2.72;;;;;;;16.66;92.15;90707.63;5032495;28;20040;-64
2022/05/22 02:37:19;;;;;;;5.10;2.38;;;;;;;16.58;93.83;90713.97;5032371;28;20025;-64
2022/05/22 02:39:45;;;;;;;3.17;2.58;;;;;;;16.60;94.81;90711.72;5014359;28;20033;-64
2022/05/22 02:42:11;;;;;;;3.28;2.75;;;;;;;16.50;96.11;90704.97;5014300;28;20095;-64
2022/05/22 02:44:36;;;;;;;2.78;2.50;;;;;;;16.21;99.18;90708.88;5032226;28;20017;-64
2022/05/22 02:47:02;;;;;;;4.38;2.70;;;;;;;16.13;100.00;90710.63;5032207;28;20056;-64
2022/05/22 02:49:27;;;;;;;3.38;2.70;;;;;;;16.12;100.00;90711.00;5032113;28;20755;-64
2022/05/22 02:51:53;;;;;;;2.60;2.40;;;;;;;16.02;100.00;90714.97;5032140;28;20036;-64
2022/05/22 02:54:18;;;;;;;2.67;2.47;;;;;;;16.05;100.00;90719.63;5032099;28;20083;-64
2022/05/22 02:56:44;;;;;;;3.22;2.92;;;;;;;16.07;100.00;90712.00;5032051;28;20029;-64
2022/05/22 02:59:10;;;;;;;2.90;2.60;;;;;;;16.10;100.00;90715.94;5031870;28;20117;-64
2022/05/22 03:01:36;;;;;;;2.75;2.50;;;;;;;16.14;100.00;90722.16;5031880;28;20120;-63
2022/05/22 03:04:01;;;;;;;2.88;2.67;;;;;;;16.13;100.00;90728.66;5031923;28;20112;-63
2022/05/22 03:06:39;;;;;;;2.80;2.55;;;;;;;16.12;100.00;90735.13;5031800;28;20088;-64
2022/05/22 03:09:11;;;;;;;3.33;2.83;;;;;;;16.06;100.00;90734.59;5031742;28;20021;-64
2022/05/22 03:11:39;;;;;;;3.05;2.78;;;;;;;16.16;100.00;90741.38;5031790;28;20036;-64
2022/05/22 03:14:04;;;;;;;2.88;2.55;;;;;;;16.14;100.00;90743.63;5031686;28;20034;-64
2022/05/22 03:16:30;;;;;;;3.92;2.88;;;;;;;16.12;100.00;90743.19;5031715;28;20036;-64
2022/05/22 03:18:55;;;;;;;3.47;2.15;;;;;;;16.24;98.77;90731.56;5031627;28;20025;-64
2022/05/22 03:21:21;;;;;;;3.58;2.55;;;;;;;16.29;95.81;90744.75;5031485;28;20602;-64
2022/05/22 03:23:46;;;;;;;2.40;2.20;;;;;;;16.26;93.34;90740.84;5031623;28;20026;-64
2022/05/22 03:26:12;;;;;;;6.05;2.55;;;;;;;16.40;91.15;90746.53;5031161;28;20056;-64
2022/05/22 03:28:38;;;;;;;5.43;2.75;;;;;;;16.56;88.24;90748.44;5031461;28;20115;-63
2022/05/22 03:31:03;;;;;;;3.97;3.33;;;;;;;16.61;86.75;90746.28;5031508;28;20091;-63
2022/05/22 03:33:29;;;;;;;5.35;3.17;;;;;;;16.69;86.07;90756.06;5031594;28;20034;-63
2022/05/22 03:35:54;;;;;;;3.20;2.70;;;;;;;16.72;84.73;90749.22;5030576;28;20410;-64
2022/05/22 03:38:20;;;;;;;4.18;3.28;;;;;;;16.56;85.38;90751.88;5031300;28;20115;-63
2022/05/22 03:40:47;;;;;;;3.58;2.60;;;;;;;16.60;84.14;90754.69;5031380;28;20063;-63
2022/05/22 03:43:13;;;;;;;3.33;2.63;;;;;;;16.61;85.05;90751.66;5031225;28;20104;-63
2022/05/22 03:45:39;;;;;;;2.50;2.30;;;;;;;16.72;86.64;90757.25;5031289;28;20483;-63
2022/05/22 03:48:05;;;;;;;2.70;2.50;;;;;;;16.71;84.25;90750.34;5031203;28;20036;-63
2022/05/22 03:50:30;;;;;;;5.03;2.50;;;;;;;16.83;81.75;90755.59;5031183;28;20034;-63
2022/05/22 03:52:56;;;;;;;3.00;2.42;;;;;;;16.86;80.89;90762.19;5031224;28;20034;-63
2022/05/22 03:55:22;;;;;;;2.45;2.25;;;;;;;16.89;79.85;90764.19;5031046;28;20113;-63
2022/05/22 03:57:48;;;;;;;2.70;2.50;;;;;;;16.95;78.28;90758.19;5031080;28;20033;-63
2022/05/22 04:00:17;;;;;;;3.63;2.97;;;;;;;16.92;78.93;90761.56;5031119;28;20037;-64
2022/05/22 04:02:43;;;;;;;4.00;2.47;;;;;;;17.09;78.06;90760.41;5030997;28;20427;-63
2022/05/22 04:05:09;;;;;;;2.22;2.00;;;;;;;17.12;77.36;90761.59;5031097;28;20090;-63
2022/05/22 04:07:43;;;;;;;2.65;2.15;;;;;;;17.32;72.11;90769.31;5031066;28;20021;-63
2022/05/22 04:10:11;;;;;;;1.80;1.70;;;;;;;17.40;70.54;90759.50;5031113;28;20030;-63
2022/05/22 04:12:37;;;;;;;5.05;2.35;;;;;;;17.38;69.44;90755.63;5030953;28;20442;-63
2022/05/22 04:15:04;;;;;;;4.40;2.35;;;;;;;17.33;69.73;90760.13;5031109;28;20049;-63
2022/05/22 04:17:29;;;;;;;3.70;2.63;;;;;;;17.29;70.21;90772.72;5030992;28;20506;-63
2022/05/22 04:19:55;;;;;;;3.13;1.90;;;;;;;17.41;69.32;90777.19;5030843;28;20040;-63
2022/05/22 04:22:20;;;;;;;8.88;4.35;;;;;;;17.45;68.56;90774.56;5030866;28;20017;-63
2022/05/22 04:27:30;;;;;;;16.42;6.13;;;;;;;17.50;67.85;90780.44;5030774;28;20064;-63
2022/05/22 04:29:55;;;;;;;9.57;4.05;;;;;;;17.67;66.68;90782.72;5030844;28;20399;-63
2022/05/22 04:32:21;;;;;;;7.15;3.75;;;;;;;17.77;66.17;90777.91;5030841;28;20032;-63
2022/05/22 04:34:46;;;;;;;9.82;3.17;;;;;;;17.77;65.81;90780.59;5030842;28;20037;-63
2022/05/22 04:37:12;;;;;;;2.08;1.60;;;;;;;18.01;62.43;90769.53;5030930;28;20041;-63
2022/05/22 04:39:37;;;;;;;3.38;2.30;;;;;;;18.08;60.67;90783.13;5030609;28;20052;-63
2022/05/22 04:42:03;;;;;;;2.45;1.90;;;;;;;18.35;59.86;90775.13;5030602;28;20033;-63
2022/05/22 04:44:29;;;;;;;2.53;1.88;;;;;;;18.54;57.72;90775.06;5030666;28;20481;-63
2022/05/22 04:46:54;;;;;;;1.52;1.42;;;;;;;18.70;54.66;90774.94;5031306;28;20514;-63
2022/05/22 04:49:20;;;;;;;2.08;1.42;;;;;;;19.04;50.51;90773.13;5034284;28;20110;-63
2022/05/22 04:51:45;;;;;;;1.67;1.58;;;;;;;19.41;49.94;90778.66;5034279;28;20410;-63
2022/05/22 04:54:11;;;;;;;1.50;1.40;;;;;;;19.54;53.11;90769.22;5034345;28;20088;-63
2022/05/22 04:56:37;;;;;;;3.53;2.03;;;;;;;19.86;50.19;90775.00;5034246;28;20030;-64
2022/05/22 04:59:03;;;;;;;2.38;1.60;;;;;;;19.93;49.05;90775.09;5034120;28;20037;-63
2022/05/22 05:01:28;;;;;;;2.05;1.85;;;;;;;20.03;50.60;90785.22;5034008;28;20030;-63
2022/05/22 05:03:54;;;;;;;1.58;1.30;;;;;;;19.44;48.33;90791.44;5034156;28;20113;-63
2022/05/22 05:06:20;;;;;;;1.40;1.30;;;;;;;19.53;47.03;90789.22;5033891;28;20021;-63
2022/05/22 05:08:46;;;;;;;1.88;1.55;;;;;;;19.60;49.76;90775.09;5034108;28;20044;-63
2022/05/22 05:11:12;;;;;;;1.88;1.58;;;;;;;19.32;51.96;90789.72;5033971;28;20510;-63
2022/05/22 05:13:37;;;;;;;2.13;1.98;;;;;;;19.25;54.27;90795.03;5033926;28;20542;-63
2022/05/22 05:16:04;;;;;;;3.50;2.00;;;;;;;19.12;56.43;90789.06;5033986;28;20029;-63
2022/05/22 05:18:31;;;;;;;4.30;2.33;;;;;;;19.01;57.26;90788.13;5033830;28;20116;-63
2022/05/22 05:21:02;;;;;;;19.60;10.32;;;;;;;19.11;57.05;90789.44;5033876;28;20438;-63
2022/05/22 05:23:28;;;;;;;5.22;3.28;;;;;;;19.08;57.15;90773.97;5033714;28;20560;-63
2022/05/22 05:25:54;;;;;;;1.67;1.58;;;;;;;19.02;53.27;90781.59;5033490;28;20132;-63
2022/05/22 05:28:19;;;;;;;2.45;2.05;;;;;;;19.28;52.08;90791.59;5033431;28;20403;-65
2022/05/22 05:30:45;;;;;;;2.25;2.00;;;;;;;19.27;55.29;90798.13;5033081;28;20104;-64
2022/05/22 05:33:10;;;;;;;2.25;1.80;;;;;;;19.03;56.66;90787.75;5023524;28;20033;-63
2022/05/22 05:35:36;;;;;;;1.63;1.52;;;;;;;19.01;56.96;90792.75;5013623;28;20018;-63
2022/05/22 05:38:02;;;;;;;2.13;1.98;;;;;;;18.97;57.24;90794.63;5013407;28;20022;-64
2022/05/22 05:40:28;;;;;;;2.10;1.50;;;;;;;19.65;54.20;90801.72;5013370;28;20060;-64
2022/05/22 05:42:54;;;;;;;1.80;1.67;;;;;;;21.80;50.29;90789.72;5013465;28;20026;-63
2022/05/22 05:45:20;;;;;;;1.67;1.25;;;;;;;21.77;46.09;90774.97;5013582;28;20038;-62
2022/05/22 05:47:47;;;;;;;2.67;1.90;;;;;;;21.33;49.73;90785.22;5013196;28;20420;-62
2022/05/22 05:50:15;;;;;;;2.22;1.40;;;;;;;21.29;48.04;90792.53;5013576;28;20072;-63
2022/05/22 05:52:41;;;;;;;2.00;1.60;;;;;;;21.20;49.31;90790.13;5013162;28;20021;-62
2022/05/22 05:55:07;;;;;;;1.90;1.70;;;;;;;20.92;51.56;90793.41;5013253;28;20061;-63
2022/05/22 05:57:32;;;;;;;2.08;1.92;;;;;;;20.55;53.83;90788.84;5013058;28;20033;-63
2022/05/22 05:59:58;;;;;;;1.83;1.50;;;;;;;20.70;54.18;90775.47;5012290;28;20038;-63
2022/05/22 06:02:24;;;;;;;1.80;1.50;;;;;;;21.31;49.21;90779.41;5012322;28;20065;-63
2022/05/22 06:04:49;;;;;;;1.92;1.58;;;;;;;22.09;47.73;90779.78;5038237;28;20480;-63
2022/05/22 06:07:14;;;;;;;1.52;1.40;;;;;;;;;;5038915;28;20048;-63
2022/05/22 06:09:40;;;;;;;1.33;1.23;;;;;;;22.68;47.40;90786.50;5028960;28;20049;-63
2022/05/22 06:12:06;;;;;;;2.15;1.60;;;;;;;22.41;47.07;90777.19;5040350;28;20283;-63
2022/05/22 06:14:31;;;;;;;2.30;1.27;;;;;;;22.02;46.83;90777.03;5033056;28;20025;-64
2022/05/22 06:16:57;;;;;;;4.97;1.35;;;;;;;22.05;47.18;90787.13;5032066;28;20022;-64
2022/05/22 06:22:07;;;;;;;1.55;1.40;;;;;;;23.04;42.79;90789.28;5032534;28;20091;-63
2022/05/22 06:24:36;;;;;;;1.30;1.20;;;;;;;23.10;42.20;90790.41;5031554;28;20037;-63
2022/05/22 06:27:03;;;;;;;7.25;1.77;;;;;;;22.73;42.54;90790.00;5031857;28;20045;-63
2022/05/22 06:29:29;;;;;;;1.77;1.33;;;;;;;22.86;43.10;90788.47;5032118;28;20040;-63
2022/05/22 06:31:54;;;;;;;1.35;1.25;;;;;;;23.00;44.04;90789.25;5031747;28;20029;-64
2022/05/22 06:34:22;;;;;;;2.08;1.38;;;;;;;23.08;44.86;90786.56;5030351;28;20094;-65
2022/05/22 06:36:49;;;;;;;1.30;1.20;;;;;;;22.80;43.25;90795.41;5031981;28;20033;-65
2022/05/22 06:41:59;;;;;;;2.20;1.15;;;;;;;21.52;45.57;90787.66;5031944;28;20099;-65
2022/05/22 06:44:24;;;;;;;5.40;1.45;;;;;;;20.72;46.23;90781.28;5030706;28;20029;-64
2022/05/22 06:46:50;;;;;;;2.67;1.23;;;;;;;20.06;46.74;90777.53;5031471;28;20096;-63
2022/05/22 06:49:15;;;;;;;3.92;1.40;;;;;;;19.77;47.69;90782.63;5031668;28;20034;-64
2022/05/22 06:51:41;;;;;;;1.50;1.40;;;;;;;19.54;48.37;90790.00;5032001;28;20415;-63
2022/05/22 06:54:06;;;;;;;4.22;2.65;;;;;;;19.37;47.37;90780.53;5031765;28;20462;-64
2022/05/22 06:56:32;;;;;;;1.90;1.02;;;;;;;19.35;47.97;90782.81;5031457;28;20091;-63
2022/05/22 06:58:57;;;;;;;1.50;1.40;;;;;;;19.32;49.17;90783.53;5031594;28;20040;-63
2022/05/22 07:01:24;;;;;;;1.85;1.38;;;;;;;19.30;48.54;90775.81;5031155;28;20099;-64
2022/05/22 07:03:53;;;;;;;2.70;1.30;;;;;;;19.33;48.56;90785.88;5031530;28;20022;-65
2022/05/22 07:06:18;;;;;;;1.88;1.08;;;;;;;19.32;48.76;90789.72;5031364;28;20033;-63
2022/05/22 07:08:44;;;;;;;8.20;1.45;;;;;;;19.52;48.63;90793.06;5031340;28;20436;-63
2022/05/22 07:13:53;;;;;;;;;;;;;;;19.53;50.10;90778.41;5031876;28;20112;-63
2022/05/22 07:16:18;;;;;;;1.40;1.30;;;;;;;19.68;50.13;90780.19;5031105;28;19917;-64
2022/05/22 07:18:43;;;;;;;1.75;1.30;;;;;;;19.99;50.28;90791.72;5031420;28;20547;-63
2022/05/22 07:21:09;;;;;;;5.03;1.63;;;;;;;20.23;50.66;90787.75;5031406;28;20082;-63
2022/05/22 07:23:34;;;;;;;2.85;1.85;;;;;;;20.30;51.06;90785.09;5031385;28;20061;-63
2022/05/22 07:26:00;;;;;;;1.30;1.20;;;;;;;20.25;51.06;90790.84;5031151;28;20037;-62
2022/05/22 07:28:25;;;;;;;1.27;1.17;;;;;;;20.29;50.20;90780.84;5031215;28;20033;-63
2022/05/22 07:30:51;;;;;;;2.40;1.95;;;;;;;20.27;49.86;90788.56;5031223;28;20040;-62
2022/05/22 07:33:17;;;;;;;1.60;1.17;;;;;;;20.16;50.55;90782.25;5030833;28;20017;-62
2022/05/22 07:35:58;;;;;;;2.20;2.00;;;;;;;20.36;48.96;90783.63;5031339;28;20472;-63
2022/05/22 07:38:24;;;;;;;1.88;1.30;;;;;;;20.31;48.83;90779.31;5031095;28;20025;-62
2022/05/22 07:40:52;;;;;;;1.40;1.30;;;;;;;20.43;48.61;90780.25;5031042;28;20041;-63
2022/05/22 07:43:17;;;;;;;1.35;1.25;;;;;;;20.45;48.89;90765.19;5031031;28;20021;-62
2022/05/22 07:45:43;;;;;;;1.33;1.20;;;;;;;20.39;47.91;90772.06;5031212;28;20037;-62
2022/05/22 07:48:08;;;;;;;4.18;1.40;;;;;;;20.21;48.78;90765.72;5030509;28;20459;-63
2022/05/22 07:50:34;;;;;;;6.20;1.55;;;;;;;20.18;48.15;90763.75;5030974;28;20033;-62
2022/05/22 07:53:00;;;;;;;2.33;1.20;;;;;;;20.05;48.79;90757.84;5031043;28;20022;-63
2022/05/22 07:55:25;;;;;;;1.73;1.63;;;;;;;20.07;49.45;90752.84;5031016;28;20549;-62
2022/05/22 07:57:51;;;;;;;1.50;1.40;;;;;;;20.37;50.11;90752.75;5030897;28;20502;-63
2022/05/22 08:00:20;;;;;;;4.93;1.77;;;;;;;20.71;47.61;90742.66;5031001;28;20113;-62
2022/05/22 08:02:47;;;;;;;1.85;1.35;;;;;;;20.94;47.34;90742.41;5030418;28;20022;-64
2022/05/22 08:05:14;;;;;;;5.53;2.30;;;;;;;20.89;50.00;90748.19;5030667;28;20477;-63
2022/05/22 08:07:40;;;;;;;1.77;1.50;;;;;;;21.03;49.88;90747.50;5030739;28;20029;-64
2022/05/22 08:10:07;;;;;;;3.53;1.80;;;;;;;21.69;48.00;90749.06;5027925;28;20063;-64
2022/05/22 08:12:41;;;;;;;3.42;1.83;;;;;;;22.17;46.45;90743.44;5030588;28;20396;-65
2022/05/22 08:15:08;;;;;;;2.80;2.08;;;;;;;22.60;46.76;90752.41;5030847;28;20423;-65
2022/05/22 08:17:36;;;;;;;2.05;1.55;;;;;;;22.94;46.07;90741.97;5028336;28;20053;-65
2022/05/22 08:20:08;;;;;;;4.70;1.90;;;;;;;22.91;44.67;90747.41;5029844;28;20083;-65
2022/05/22 08:22:34;;;;;;;1.52;1.30;;;;;;;23.71;44.27;90741.47;5032327;28;20030;-64
2022/05/22 08:25:03;;;;;;;1.48;1.25;;;;;;;25.49;41.06;90741.09;5034377;28;20095;-65
2022/05/22 08:27:30;;;;;;;1.35;1.25;;;;;;;26.56;39.76;90732.44;5010672;28;20045;-66
2022/05/22 08:29:56;;;;;;;3.55;1.20;;;;;;;28.14;36.17;90733.31;5014007;28;20034;-66
2022/05/22 08:32:22;;;;;;;4.28;1.52;;;;;;;28.65;36.32;90731.88;5014164;28;20492;-65
2022/05/22 08:34:47;;;;;;;1.30;1.20;;;;;;;29.04;35.54;90727.50;5011737;28;20058;-65
2022/05/22 08:37:13;;;;;;;1.60;1.23;;;;;;;28.23;35.34;90730.78;5013986;28;20042;-64
2022/05/22 08:39:38;;;;;;;1.58;1.30;;;;;;;27.90;35.68;90735.34;5014360;28;20026;-64
2022/05/22 08:42:16;;;;;;;3.03;1.50;;;;;;;27.21;37.76;90732.25;5012803;28;20060;-65
2022/05/22 08:44:42;;;;;;;1.05;1.02;;;;;;;24.68;39.31;90729.72;5013511;28;20412;-65
2022/05/22 08:47:28;;;;;;;4.10;1.60;;;;;;;25.05;39.35;90720.09;5013872;28;20825;-67
2022/05/22 08:50:07;;;;;;;2.15;1.95;;;;;;;24.45;41.26;90724.03;5014198;28;20079;-64
2022/05/22 08:52:45;;;;;;;1.77;1.40;;;;;;;23.85;41.46;90720.47;5013004;28;20180;-64
2022/05/22 08:55:20;;;;;;;1.35;1.25;;;;;;;22.76;43.33;90719.50;5013201;28;20105;-65
2022/05/22 09:00:40;;;;;;;4.85;1.42;;;;;;;23.09;42.91;90699.31;5008415;28;20037;-63
2022/05/22 09:03:14;;;;;;;1.73;1.63;;;;;;;25.82;41.09;90690.53;5013415;28;20400;-64
2022/05/22 09:05:40;;;;;;;2.15;1.25;;;;;;;29.66;35.61;90687.19;5018900;28;20025;-63
2022/05/22 09:08:15;;;;;;;2.45;1.20;;;;;;;33.93;30.36;90678.09;5023364;28;20018;-64
2022/05/22 09:11:03;;;;;;;1.25;1.13;;;;;;;36.29;27.26;90679.59;5023168;28;20021;-64
2022/05/22 09:13:40;;;;;;;5.13;1.20;;;;;;;32.89;30.18;90675.22;5022374;28;20108;-64
2022/05/22 09:16:29;;;;;;;7.30;2.60;;;;;;;29.66;33.39;90681.72;4994084;28;20108;-64
2022/05/22 09:19:10;;;;;;;4.20;2.22;;;;;;;29.21;34.22;90679.72;4994411;28;20019;-65
2022/05/22 09:21:49;;;;;;;2.88;1.63;;;;;;;30.25;33.96;90680.50;4993025;28;20027;-64
2022/05/22 09:24:25;;;;;;;2.20;1.40;;;;;;;29.54;33.35;90666.00;4994325;28;20081;-64
2022/05/22 09:27:00;;;;;;;1.27;1.17;;;;;;;29.02;34.59;90672.34;5005853;28;20056;-64
2022/05/22 09:29:46;;;;;;;1.13;1.10;;;;;;;30.00;34.73;90662.00;5013694;28;20032;-64
2022/05/22 09:32:24;;;;;;;2.00;1.60;;;;;;;31.88;31.61;90667.09;5013496;28;20030;-63
2022/05/22 09:35:17;;;;;;;3.65;1.63;;;;;;;31.65;32.66;90661.19;5012584;28;20396;-64
2022/05/22 09:38:05;;;;;;;9.23;1.75;;;;;;;28.48;35.20;90664.59;5013618;28;20030;-63
2022/05/22 09:40:45;;;;;;;3.15;1.70;;;;;;;26.92;37.80;90655.47;5013536;28;20046;-63
2022/05/22 09:43:29;;;;;;;2.67;1.38;;;;;;;25.95;39.31;90655.34;5013548;28;20047;-62
2022/05/22 09:46:13;;;;;;;;;;;;;;;24.77;40.68;90653.88;5013802;28;20474;-63
2022/05/22 09:49:02;;;;;;;2.85;1.65;;;;;;;25.36;39.49;90658.34;5013387;28;19918;-62
2022/05/22 09:51:36;;;;;;;6.38;1.48;;;;;;;26.91;40.38;90659.38;5013371;28;20504;-62
2022/05/22 09:54:17;;;;;;;1.33;1.23;;;;;;;28.00;37.39;90649.59;5013372;28;20042;-62
2022/05/22 09:57:05;;;;;;;6.40;1.83;;;;;;;26.75;38.53;90657.31;5013285;28;20029;-62
2022/05/22 10:00:11;;;;;;;2.38;1.88;;;;;;;24.63;40.96;90650.50;5013083;28;20033;-62
2022/05/22 10:02:46;;;;;;;1.40;1.10;;;;;;;23.42;43.91;90660.06;5011120;28;20400;-62
2022/05/22 10:05:19;;;;;;;1.50;1.40;;;;;;;22.93;45.59;90663.69;5033297;28;20071;-63
2022/05/22 10:08:11;;;;;;;2.03;1.20;;;;;;;22.37;46.61;90660.59;5039914;28;20030;-62
2022/05/22 10:11:06;;;;;;;1.30;1.20;;;;;;;21.30;49.74;90664.97;5034452;28;20045;-62
2022/05/22 10:13:45;;;;;;;1.58;1.35;;;;;;;21.02;49.90;90660.19;4999695;28;20503;-62
2022/05/22 10:16:14;;;;;;;1.38;1.27;;;;;;;20.73;50.83;90658.47;5034189;28;20033;-62
2022/05/22 10:18:49;;;;;;;1.30;1.20;;;;;;;20.73;51.10;90656.53;5032134;28;20021;-62
2022/05/22 10:21:23;;;;;;;1.50;1.40;;;;;;;20.82;51.66;90672.41;5031176;28;20091;-65
2022/05/22 10:24:05;;;;;;;2.22;1.98;;;;;;;20.76;52.12;90660.41;5017954;28;20103;-63
2022/05/22 10:26:49;;;;;;;1.67;1.23;;;;;;;20.71;53.27;90671.59;5011870;28;20057;-63
2022/05/22 10:29:40;;;;;;;1.23;1.13;;;;;;;20.75;53.51;90672.38;5012169;28;20492;-63
2022/05/22 10:32:13;;;;;;;2.50;1.45;;;;;;;20.43;54.09;90677.56;5022762;28;20103;-63
2022/05/22 10:34:47;;;;;;;3.80;1.40;;;;;;;20.60;53.25;90672.28;5032044;28;20457;-63
2022/05/22 10:37:22;;;;;;;1.83;1.40;;;;;;;20.44;53.34;90663.69;5014787;28;20468;-63
2022/05/22 10:39:48;;;;;;;5.18;1.60;;;;;;;20.74;52.07;90657.31;5012376;28;20076;-63
2022/05/22 10:42:49;;;;;;;2.00;1.25;;;;;;;20.88;52.12;90660.09;5012422;28;20029;-64
2022/05/22 10:45:32;;;;;;;2.47;1.70;;;;;;;21.00;52.03;90646.28;5011496;28;20026;-64
2022/05/22 10:48:12;;;;;;;1.30;1.17;;;;;;;21.55;51.50;90648.06;5012364;28;20420;-64
2022/05/22 10:50:49;;;;;;;1.98;1.25;;;;;;;21.93;51.26;90643.88;5012410;28;20412;-62
2022/05/22 10:53:31;;;;;;;2.78;1.25;;;;;;;22.40;51.60;90642.78;5012343;28;20088;-64
2022/05/22 10:56:13;;;;;;;3.33;1.73;;;;;;;22.74;50.13;90640.47;5012326;28;20026;-64
2022/05/22 10:58:48;;;;;;;1.35;1.20;;;;;;;23.05;49.10;90633.44;5012181;28;20037;-64
2022/05/22 11:01:20;;;;;;;1.05;1.00;;;;;;;23.98;48.23;90627.59;5012232;28;20057;-64
2022/05/22 11:03:47;;;;;;;3.42;1.45;;;;;;;24.70;45.45;90615.06;5012196;28;20025;-64
2022/05/22 11:06:20;;;;;;;2.45;1.38;;;;;;;24.76;45.96;90614.19;5012145;28;20036;-64
2022/05/22 11:08:54;;;;;;;5.32;2.95;;;;;;;25.17;44.11;90613.44;5012090;28;20088;-64
2022/05/22 11:11:24;;;;;;;3.85;2.20;;;;;;;25.01;43.98;90605.06;5012126;28;20034;-64
2022/05/22 11:13:50;;;;;;;2.17;1.52;;;;;;;24.82;44.07;90603.66;5012095;28;20087;-64
2022/05/22 11:16:29;;;;;;;1.73;1.30;;;;;;;24.61;45.10;90604.63;5012285;28;20030;-64
2022/05/22 11:19:25;;;;;;;1.98;1.75;;;;;;;24.66;44.31;90601.50;5011865;28;20026;-64
2022/05/22 11:22:09;;;;;;;6.70;1.42;;;;;;;26.50;42.53;90602.34;5011906;28;20017;-64
2022/05/22 11:24:44;;;;;;;1.27;1.17;;;;;;;29.38;40.29;90604.50;5011949;28;20030;-62
2022/05/22 11:27:14;;;;;;;1.63;1.45;;;;;;;29.12;38.37;90600.13;5011468;28;20508;-62
2022/05/22 11:29:39;;;;;;;1.15;1.10;;;;;;;29.39;38.73;90605.28;5011997;28;20038;-64
2022/05/22 11:32:35;;;;;;;1.98;1.42;;;;;;;28.34;40.22;90602.75;5011796;28;20050;-64
2022/05/22 11:35:03;;;;;;;4.13;1.60;;;;;;;28.21;41.12;90594.41;5011761;28;20037;-64
2022/05/22 11:37:47;;;;;;;1.83;1.40;;;;;;;28.43;40.42;90599.44;5011872;28;20046;-64
2022/05/22 11:40:51;;;;;;;1.85;1.50;;;;;;;28.18;40.57;90599.97;5011745;28;20033;-64
2022/05/22 11:43:16;;;;;;;2.60;1.30;;;;;;;28.40;40.37;90600.28;5011537;28;20060;-64
2022/05/22 11:46:03;;;;;;;1.48;1.35;;;;;;;28.19;41.62;90591.34;5011674;28;20507;-64
2022/05/22 11:49:10;;;;;;;5.28;1.67;;;;;;;27.07;42.37;90591.28;5011604;28;20041;-63
2022/05/22 11:51:59;;;;;;;2.47;1.50;;;;;;;25.23;44.96;90573.69;5011642;28;20038;-63
2022/05/22 11:54:41;;;;;;;1.42;1.30;;;;;;;24.44;46.77;90581.09;5011622;28;20038;-63
2022/05/22 11:57:15;;;;;;;2.92;1.40;;;;;;;24.29;47.27;90571.47;5010709;28;20176;-62
2022/05/22 12:00:12;;;;;;;1.65;1.38;;;;;;;23.65;48.28;90564.56;5011528;28;20113;-63
2022/05/22 12:03:14;;;;;;;2.65;1.55;;;;;;;24.26;46.65;90575.00;5011591;28;20036;-63